sensor_id;sensor_type;location;lat;lon;timestamp;temperature;humidity
14473;DHT22;7322;50.872;4.386;2022-12-07T00:01:28;16.60;99.90
14473;DHT22;7322;50.872;4.386;2022-12-07T00:04:10;16.50;99.90
14473;DHT22;7322;50.872;4.386;2022-12-07T00:06:56;16.50;99.90
14473;DHT22;7322;50.872;4.386;2022-12-07T00:09:38;16.50;99.90
14473;DHT22;7322;50.872;4.386;2022-12-07T00:12:14;16.50;99.90
14473;DHT22;7322;50.872;4.386;2022-12-07T00:14:53;16.50;99.90
14473;DHT22;7322;50.872;4.386;2022-12-07T00:17:35;16.50;99.90
14473;DHT22;7322;50.872;4.386;2022-12-07T00:20:27;16.50;99.90
14473;DHT22;7322;50.872;4.386;2022-12-07T00:23:12;16.50;99.90
14473;DHT22;7322;50.872;4.386;2022-12-07T00:25:41;16.50;99.90
14473;DHT22;7322;50.872;4.386;2022-12-07T00:28:09;16.40;99.90
14473;DHT22;7322;50.872;4.386;2022-12-07T00:30:40;16.40;99.90
14473;DHT22;7322;50.872;4.386;2022-12-07T00:33:26;16.40;99.90
14473;DHT22;7322;50.872;4.386;2022-12-07T00:36:09;16.40;99.90
14473;DHT22;7322;50.872;4.386;2022-12-07T00:38:39;16.40;99.90
14473;DHT22;7322;50.872;4.386;2022-12-07T00:41:11;16.40;99.90
14473;DHT22;7322;50.872;4.386;2022-12-07T00:43:40;16.40;99.90
14473;DHT22;7322;50.872;4.386;2022-12-07T00:46:10;16.40;99.90
14473;DHT22;7322;50.872;4.386;2022-12-07T00:48:51;16.40;99.90
14473;DHT22;7322;50.872;4.386;2022-12-07T00:51:36;16.40;99.90
14473;DHT22;7322;50.872;4.386;2022-12-07T00:54:07;16.30;99.90
14473;DHT22;7322;50.872;4.386;2022-12-07T00:56:35;16.30;99.90
14473;DHT22;7322;50.872;4.386;2022-12-07T00:59:11;16.30;99.90
14473;DHT22;7322;50.872;4.386;2022-12-07T01:01:59;16.30;99.90
14473;DHT22;7322;50.872;4.386;2022-12-07T01:04:33;16.30;99.90
14473;DHT22;7322;50.872;4.386;2022-12-07T01:07:18;16.30;99.90
14473;DHT22;7322;50.872;4.386;2022-12-07T01:09:51;16.30;99.90
14473;DHT22;7322;50.872;4.386;2022-12-07T01:12:33;16.20;99.90
14473;DHT22;7322;50.872;4.386;2022-12-07T01:15:03;16.20;99.90
14473;DHT22;7322;50.872;4.386;2022-12-07T01:17:31;16.20;99.90
14473;DHT22;7322;50.872;4.386;2022-12-07T01:20:07;16.20;99.90
14473;DHT22;7322;50.872;4.386;2022-12-07T01:23:07;16.30;99.90
14473;DHT22;7322;50.872;4.386;2022-12-07T01:25:38;16.30;99.90
14473;DHT22;7322;50.872;4.386;2022-12-07T01:31:29;16.20;99.90
14473;DHT22;7322;50.872;4.386;2022-12-07T01:34:06;16.20;99.90
14473;DHT22;7322;50.872;4.386;2022-12-07T01:36:45;16.20;99.90
14473;DHT22;7322;50.872;4.386;2022-12-07T01:39:16;16.20;99.90
14473;DHT22;7322;50.872;4.386;2022-12-07T01:41:45;16.20;99.90
14473;DHT22;7322;50.872;4.386;2022-12-07T01:44:19;16.10;99.90
14473;DHT22;7322;50.872;4.386;2022-12-07T01:47:03;16.10;99.90
14473;DHT22;7322;50.872;4.386;2022-12-07T01:49:36;16.10;99.90
14473;DHT22;7322;50.872;4.386;2022-12-07T01:52:21;16.10;99.90
14473;DHT22;7322;50.872;4.386;2022-12-07T01:54:59;16.20;99.90
14473;DHT22;7322;50.872;4.386;2022-12-07T01:57:28;16.10;99.90
14473;DHT22;7322;50.872;4.386;2022-12-07T02:00:05;16.10;99.90
14473;DHT22;7322;50.872;4.386;2022-12-07T02:03:04;16.10;99.90
14473;DHT22;7322;50.872;4.386;2022-12-07T02:05:35;16.10;99.90
14473;DHT22;7322;50.872;4.386;2022-12-07T02:08:07;16.10;99.90
14473;DHT22;7322;50.872;4.386;2022-12-07T02:10:39;16.10;99.90
14473;DHT22;7322;50.872;4.386;2022-12-07T02:13:21;16.10;99.90
14473;DHT22;7322;50.872;4.386;2022-12-07T02:16:09;16.10;99.90
14473;DHT22;7322;50.872;4.386;2022-12-07T02:21:57;16.10;99.90
14473;DHT22;7322;50.872;4.386;2022-12-07T02:24:49;16.10;99.90
14473;DHT22;7322;50.872;4.386;2022-12-07T02:27:39;16.10;99.90
14473;DHT22;7322;50.872;4.386;2022-12-07T02:30:20;16.10;99.90
14473;DHT22;7322;50.872;4.386;2022-12-07T02:32:54;16.10;99.90
14473;DHT22;7322;50.872;4.386;2022-12-07T02:35:28;16.10;99.90
14473;DHT22;7322;50.872;4.386;2022-12-07T02:38:13;16.10;99.90
14473;DHT22;7322;50.872;4.386;2022-12-07T02:40:45;16.10;99.90
14473;DHT22;7322;50.872;4.386;2022-12-07T02:43:38;16.00;99.90
14473;DHT22;7322;50.872;4.386;2022-12-07T02:46:15;16.10;99.90
14473;DHT22;7322;50.872;4.386;2022-12-07T02:52:36;16.10;99.90
14473;DHT22;7322;50.872;4.386;2022-12-07T02:58:42;16.10;99.90
14473;DHT22;7322;50.872;4.386;2022-12-07T03:05:03;16.00;99.90
14473;DHT22;7322;50.872;4.386;2022-12-07T03:07:43;16.00;99.90
14473;DHT22;7322;50.872;4.386;2022-12-07T03:10:31;16.00;99.90
14473;DHT22;7322;50.872;4.386;2022-12-07T03:13:26;16.00;99.90
14473;DHT22;7322;50.872;4.386;2022-12-07T03:16:08;16.00;99.90
14473;DHT22;7322;50.872;4.386;2022-12-07T03:18:38;16.00;99.90
14473;DHT22;7322;50.872;4.386;2022-12-07T03:21:11;16.00;99.90
14473;DHT22;7322;50.872;4.386;2022-12-07T03:23:55;16.00;99.90
14473;DHT22;7322;50.872;4.386;2022-12-07T03:26:28;16.00;99.90
14473;DHT22;7322;50.872;4.386;2022-12-07T03:29:04;16.00;99.90
14473;DHT22;7322;50.872;4.386;2022-12-07T03:31:43;16.00;99.90
14473;DHT22;7322;50.872;4.386;2022-12-07T03:34:15;16.00;99.90
14473;DHT22;7322;50.872;4.386;2022-12-07T03:40:03;16.00;99.90
14473;DHT22;7322;50.872;4.386;2022-12-07T03:42:57;15.90;99.90
14473;DHT22;7322;50.872;4.386;2022-12-07T03:45:51;16.00;99.90
14473;DHT22;7322;50.872;4.386;2022-12-07T03:48:32;15.90;99.90
14473;DHT22;7322;50.872;4.386;2022-12-07T03:51:30;15.90;99.90
14473;DHT22;7322;50.872;4.386;2022-12-07T03:54:13;15.90;99.90
14473;DHT22;7322;50.872;4.386;2022-12-07T03:56:50;15.90;99.90
14473;DHT22;7322;50.872;4.386;2022-12-07T03:59:26;15.90;99.90
14473;DHT22;7322;50.872;4.386;2022-12-07T04:02:01;15.90;99.90
14473;DHT22;7322;50.872;4.386;2022-12-07T04:04:29;15.90;99.90
14473;DHT22;7322;50.872;4.386;2022-12-07T04:07:15;15.90;99.90
14473;DHT22;7322;50.872;4.386;2022-12-07T04:10:01;15.90;99.90
14473;DHT22;7322;50.872;4.386;2022-12-07T04:12:30;15.90;99.90
14473;DHT22;7322;50.872;4.386;2022-12-07T04:15:13;15.90;99.90
14473;DHT22;7322;50.872;4.386;2022-12-07T04:18:02;15.80;99.90
14473;DHT22;7322;50.872;4.386;2022-12-07T04:20:46;15.90;99.90
14473;DHT22;7322;50.872;4.386;2022-12-07T04:26:14;15.90;99.90
14473;DHT22;7322;50.872;4.386;2022-12-07T04:29:01;15.80;99.90
14473;DHT22;7322;50.872;4.386;2022-12-07T04:31:30;15.80;99.90
14473;DHT22;7322;50.872;4.386;2022-12-07T04:34:00;15.80;99.90
14473;DHT22;7322;50.872;4.386;2022-12-07T04:36:33;15.80;99.90
14473;DHT22;7322;50.872;4.386;2022-12-07T04:39:21;15.80;99.90
14473;DHT22;7322;50.872;4.386;2022-12-07T04:42:04;15.80;99.90
14473;DHT22;7322;50.872;4.386;2022-12-07T04:44:41;15.80;99.90
14473;DHT22;7322;50.872;4.386;2022-12-07T04:47:15;15.80;99.90
14473;DHT22;7322;50.872;4.386;2022-12-07T04:49:43;15.80;99.90
14473;DHT22;7322;50.872;4.386;2022-12-07T04:52:18;15.80;99.90
14473;DHT22;7322;50.872;4.386;2022-12-07T04:54:50;15.80;99.90
14473;DHT22;7322;50.872;4.386;2022-12-07T04:57:17;15.80;99.90
14473;DHT22;7322;50.872;4.386;2022-12-07T04:59:59;15.80;99.90
14473;DHT22;7322;50.872;4.386;2022-12-07T05:02:44;15.80;99.90
14473;DHT22;7322;50.872;4.386;2022-12-07T05:05:12;15.80;99.90
14473;DHT22;7322;50.872;4.386;2022-12-07T05:08:03;15.80;99.90
14473;DHT22;7322;50.872;4.386;2022-12-07T05:10:48;15.70;99.90
14473;DHT22;7322;50.872;4.386;2022-12-07T05:13:25;15.80;99.90
14473;DHT22;7322;50.872;4.386;2022-12-07T05:15:59;15.70;99.90
14473;DHT22;7322;50.872;4.386;2022-12-07T05:18:40;15.80;99.90
14473;DHT22;7322;50.872;4.386;2022-12-07T05:21:20;15.80;99.90
14473;DHT22;7322;50.872;4.386;2022-12-07T05:24:12;15.70;99.90
14473;DHT22;7322;50.872;4.386;2022-12-07T05:26:41;15.80;99.90
14473;DHT22;7322;50.872;4.386;2022-12-07T05:29:11;15.70;99.90
14473;DHT22;7322;50.872;4.386;2022-12-07T05:31:48;15.70;99.90
14473;DHT22;7322;50.872;4.386;2022-12-07T05:34:23;15.70;99.90
14473;DHT22;7322;50.872;4.386;2022-12-07T05:37:00;15.70;99.90
14473;DHT22;7322;50.872;4.386;2022-12-07T05:39:58;15.70;99.90
14473;DHT22;7322;50.872;4.386;2022-12-07T05:42:47;15.70;99.90
14473;DHT22;7322;50.872;4.386;2022-12-07T05:45:34;15.70;99.90
14473;DHT22;7322;50.872;4.386;2022-12-07T05:48:10;15.70;99.90
14473;DHT22;7322;50.872;4.386;2022-12-07T05:50:39;15.70;99.90
14473;DHT22;7322;50.872;4.386;2022-12-07T05:53:09;15.70;99.90
14473;DHT22;7322;50.872;4.386;2022-12-07T05:55:52;15.70;99.90
14473;DHT22;7322;50.872;4.386;2022-12-07T05:58:21;15.80;99.90
14473;DHT22;7322;50.872;4.386;2022-12-07T06:01:14;15.90;99.90
14473;DHT22;7322;50.872;4.386;2022-12-07T06:03:49;16.00;99.90
14473;DHT22;7322;50.872;4.386;2022-12-07T06:06:21;16.20;99.90
14473;DHT22;7322;50.872;4.386;2022-12-07T06:09:05;16.40;99.90
14473;DHT22;7322;50.872;4.386;2022-12-07T06:14:56;16.70;99.90
14473;DHT22;7322;50.872;4.386;2022-12-07T06:17:24;16.90;99.90
14473;DHT22;7322;50.872;4.386;2022-12-07T06:19:52;17.00;99.90
14473;DHT22;7322;50.872;4.386;2022-12-07T06:22:21;17.20;99.90
14473;DHT22;7322;50.872;4.386;2022-12-07T06:24:48;17.40;99.90
14473;DHT22;7322;50.872;4.386;2022-12-07T06:27:18;17.60;99.90
14473;DHT22;7322;50.872;4.386;2022-12-07T06:29:50;17.80;99.90
14473;DHT22;7322;50.872;4.386;2022-12-07T06:32:18;18.10;99.90
14473;DHT22;7322;50.872;4.386;2022-12-07T06:34:46;18.30;99.90
14473;DHT22;7322;50.872;4.386;2022-12-07T06:37:14;18.50;99.90
14473;DHT22;7322;50.872;4.386;2022-12-07T06:39:41;18.70;99.90
14473;DHT22;7322;50.872;4.386;2022-12-07T06:42:09;18.90;99.90
14473;DHT22;7322;50.872;4.386;2022-12-07T06:44:37;18.90;99.90
14473;DHT22;7322;50.872;4.386;2022-12-07T06:47:06;19.10;99.90
14473;DHT22;7322;50.872;4.386;2022-12-07T06:49:34;19.10;99.90
14473;DHT22;7322;50.872;4.386;2022-12-07T06:52:01;19.10;99.90
14473;DHT22;7322;50.872;4.386;2022-12-07T06:54:32;19.20;99.90
14473;DHT22;7322;50.872;4.386;2022-12-07T06:57:00;19.20;99.90
14473;DHT22;7322;50.872;4.386;2022-12-07T06:59:28;19.20;99.90
14473;DHT22;7322;50.872;4.386;2022-12-07T07:01:55;19.10;99.90
14473;DHT22;7322;50.872;4.386;2022-12-07T07:04:22;19.10;99.90
14473;DHT22;7322;50.872;4.386;2022-12-07T07:06:58;19.10;99.90
14473;DHT22;7322;50.872;4.386;2022-12-07T07:09:25;19.00;99.90
14473;DHT22;7322;50.872;4.386;2022-12-07T07:12:01;18.90;99.90
14473;DHT22;7322;50.872;4.386;2022-12-07T07:14:36;18.90;99.90
14473;DHT22;7322;50.872;4.386;2022-12-07T07:17:10;18.90;99.90
14473;DHT22;7322;50.872;4.386;2022-12-07T07:19:37;18.80;99.90
14473;DHT22;7322;50.872;4.386;2022-12-07T07:22:14;18.80;99.90
14473;DHT22;7322;50.872;4.386;2022-12-07T07:24:45;18.70;99.90
14473;DHT22;7322;50.872;4.386;2022-12-07T07:27:16;18.70;99.90
14473;DHT22;7322;50.872;4.386;2022-12-07T07:29:45;18.60;99.90
14473;DHT22;7322;50.872;4.386;2022-12-07T07:32:19;18.50;99.90
14473;DHT22;7322;50.872;4.386;2022-12-07T07:34:49;18.50;99.90
14473;DHT22;7322;50.872;4.386;2022-12-07T07:37:29;18.50;99.90
14473;DHT22;7322;50.872;4.386;2022-12-07T07:39:57;18.40;99.90
14473;DHT22;7322;50.872;4.386;2022-12-07T07:42:36;18.40;99.90
14473;DHT22;7322;50.872;4.386;2022-12-07T07:45:04;18.30;99.90
14473;DHT22;7322;50.872;4.386;2022-12-07T07:47:42;18.20;99.90
14473;DHT22;7322;50.872;4.386;2022-12-07T07:50:19;18.20;99.90
14473;DHT22;7322;50.872;4.386;2022-12-07T07:52:58;18.20;99.90
14473;DHT22;7322;50.872;4.386;2022-12-07T07:55:51;18.10;99.90
14473;DHT22;7322;50.872;4.386;2022-12-07T07:58:28;18.10;99.90
14473;DHT22;7322;50.872;4.386;2022-12-07T08:01:03;18.10;99.90
14473;DHT22;7322;50.872;4.386;2022-12-07T08:03:36;18.00;99.90
14473;DHT22;7322;50.872;4.386;2022-12-07T08:06:04;18.00;99.90
14473;DHT22;7322;50.872;4.386;2022-12-07T08:08:39;17.90;99.90
14473;DHT22;7322;50.872;4.386;2022-12-07T08:11:09;17.90;99.90
14473;DHT22;7322;50.872;4.386;2022-12-07T08:13:46;17.90;99.90
14473;DHT22;7322;50.872;4.386;2022-12-07T08:16:18;17.80;99.90
14473;DHT22;7322;50.872;4.386;2022-12-07T08:21:59;17.80;99.90
14473;DHT22;7322;50.872;4.386;2022-12-07T08:24:33;17.70;99.90
14473;DHT22;7322;50.872;4.386;2022-12-07T08:27:04;17.70;99.90
14473;DHT22;7322;50.872;4.386;2022-12-07T08:29:45;17.60;99.90
14473;DHT22;7322;50.872;4.386;2022-12-07T08:32:21;17.60;99.90
14473;DHT22;7322;50.872;4.386;2022-12-07T08:34:49;17.50;99.90
14473;DHT22;7322;50.872;4.386;2022-12-07T08:37:17;17.50;99.90
14473;DHT22;7322;50.872;4.386;2022-12-07T08:40:00;17.50;99.90
14473;DHT22;7322;50.872;4.386;2022-12-07T08:42:39;17.50;99.90
14473;DHT22;7322;50.872;4.386;2022-12-07T08:45:10;17.40;99.90
14473;DHT22;7322;50.872;4.386;2022-12-07T08:47:41;17.40;99.90
14473;DHT22;7322;50.872;4.386;2022-12-07T08:53:01;17.40;99.90
14473;DHT22;7322;50.872;4.386;2022-12-07T08:55:31;17.40;99.90
14473;DHT22;7322;50.872;4.386;2022-12-07T08:58:00;17.40;99.90
14473;DHT22;7322;50.872;4.386;2022-12-07T09:00:33;17.40;99.90
14473;DHT22;7322;50.872;4.386;2022-12-07T09:03:08;17.40;99.90
14473;DHT22;7322;50.872;4.386;2022-12-07T09:05:37;17.40;99.90
14473;DHT22;7322;50.872;4.386;2022-12-07T09:08:05;17.40;99.90
14473;DHT22;7322;50.872;4.386;2022-12-07T09:10:37;17.40;99.90
14473;DHT22;7322;50.872;4.386;2022-12-07T09:13:11;17.40;99.90
14473;DHT22;7322;50.872;4.386;2022-12-07T09:15:39;17.40;99.90
14473;DHT22;7322;50.872;4.386;2022-12-07T09:18:09;17.40;99.90
14473;DHT22;7322;50.872;4.386;2022-12-07T09:20:37;17.40;99.90
14473;DHT22;7322;50.872;4.386;2022-12-07T09:23:06;17.30;99.90
14473;DHT22;7322;50.872;4.386;2022-12-07T09:25:36;17.30;99.90
14473;DHT22;7322;50.872;4.386;2022-12-07T09:28:32;17.30;99.90
14473;DHT22;7322;50.872;4.386;2022-12-07T09:31:09;17.30;99.90
14473;DHT22;7322;50.872;4.386;2022-12-07T09:33:39;17.30;99.90
14473;DHT22;7322;50.872;4.386;2022-12-07T09:36:15;17.30;99.90
14473;DHT22;7322;50.872;4.386;2022-12-07T09:38:42;17.30;99.90
14473;DHT22;7322;50.872;4.386;2022-12-07T09:41:20;17.30;99.90
14473;DHT22;7322;50.872;4.386;2022-12-07T09:43:47;17.30;99.90
14473;DHT22;7322;50.872;4.386;2022-12-07T09:46:26;17.30;99.90
14473;DHT22;7322;50.872;4.386;2022-12-07T09:48:53;17.30;99.90
14473;DHT22;7322;50.872;4.386;2022-12-07T09:51:23;17.30;99.90
14473;DHT22;7322;50.872;4.386;2022-12-07T09:53:53;17.20;99.90
14473;DHT22;7322;50.872;4.386;2022-12-07T09:56:22;17.30;99.90
14473;DHT22;7322;50.872;4.386;2022-12-07T09:59:13;17.30;99.90
14473;DHT22;7322;50.872;4.386;2022-12-07T10:01:45;17.30;99.90
14473;DHT22;7322;50.872;4.386;2022-12-07T10:04:17;17.30;99.90
14473;DHT22;7322;50.872;4.386;2022-12-07T10:06:45;17.30;99.90
14473;DHT22;7322;50.872;4.386;2022-12-07T10:09:15;17.30;99.90
14473;DHT22;7322;50.872;4.386;2022-12-07T10:12:03;17.30;99.90
14473;DHT22;7322;50.872;4.386;2022-12-07T10:15:04;17.40;99.90
14473;DHT22;7322;50.872;4.386;2022-12-07T10:17:56;17.40;99.90
14473;DHT22;7322;50.872;4.386;2022-12-07T10:20:36;17.40;99.90
14473;DHT22;7322;50.872;4.386;2022-12-07T10:23:13;17.40;99.90
14473;DHT22;7322;50.872;4.386;2022-12-07T10:25:42;17.40;99.90
14473;DHT22;7322;50.872;4.386;2022-12-07T10:31:24;17.40;99.90
14473;DHT22;7322;50.872;4.386;2022-12-07T10:33:54;17.40;99.90
14473;DHT22;7322;50.872;4.386;2022-12-07T10:36:24;17.40;99.90
14473;DHT22;7322;50.872;4.386;2022-12-07T10:38:53;17.40;99.90
14473;DHT22;7322;50.872;4.386;2022-12-07T10:41:25;17.40;99.90
14473;DHT22;7322;50.872;4.386;2022-12-07T10:43:58;17.40;99.90
14473;DHT22;7322;50.872;4.386;2022-12-07T10:59:33;17.30;99.90
14473;DHT22;7322;50.872;4.386;2022-12-07T11:02:20;17.30;99.90
14473;DHT22;7322;50.872;4.386;2022-12-07T11:04:59;17.40;99.90
14473;DHT22;7322;50.872;4.386;2022-12-07T11:07:38;17.40;99.90
14473;DHT22;7322;50.872;4.386;2022-12-07T11:10:15;17.40;99.90
14473;DHT22;7322;50.872;4.386;2022-12-07T11:12:55;17.40;99.90
14473;DHT22;7322;50.872;4.386;2022-12-07T11:15:31;17.40;99.90
14473;DHT22;7322;50.872;4.386;2022-12-07T11:18:07;17.40;99.90
14473;DHT22;7322;50.872;4.386;2022-12-07T11:20:41;17.30;99.90
14473;DHT22;7322;50.872;4.386;2022-12-07T11:23:18;17.30;99.90
14473;DHT22;7322;50.872;4.386;2022-12-07T11:25:54;17.40;99.90
14473;DHT22;7322;50.872;4.386;2022-12-07T11:28:33;17.40;99.90
14473;DHT22;7322;50.872;4.386;2022-12-07T11:31:12;17.50;99.90
14473;DHT22;7322;50.872;4.386;2022-12-07T11:33:45;17.50;99.90
14473;DHT22;7322;50.872;4.386;2022-12-07T11:36:29;17.60;99.90
14473;DHT22;7322;50.872;4.386;2022-12-07T11:39:01;17.70;99.90
14473;DHT22;7322;50.872;4.386;2022-12-07T11:41:33;17.70;99.90
14473;DHT22;7322;50.872;4.386;2022-12-07T11:44:06;17.80;99.90
14473;DHT22;7322;50.872;4.386;2022-12-07T11:46:45;17.90;99.90
14473;DHT22;7322;50.872;4.386;2022-12-07T11:49:19;18.00;99.90
14473;DHT22;7322;50.872;4.386;2022-12-07T11:51:50;18.00;99.90
14473;DHT22;7322;50.872;4.386;2022-12-07T11:54:28;18.10;99.90
14473;DHT22;7322;50.872;4.386;2022-12-07T11:57:01;18.10;99.90
14473;DHT22;7322;50.872;4.386;2022-12-07T11:59:36;18.20;99.90
14473;DHT22;7322;50.872;4.386;2022-12-07T12:02:13;18.20;99.90
14473;DHT22;7322;50.872;4.386;2022-12-07T12:04:50;18.30;99.90
14473;DHT22;7322;50.872;4.386;2022-12-07T12:07:21;18.40;99.90
14473;DHT22;7322;50.872;4.386;2022-12-07T12:09:59;18.30;99.90
14473;DHT22;7322;50.872;4.386;2022-12-07T12:15:45;18.40;99.90
14473;DHT22;7322;50.872;4.386;2022-12-07T12:18:37;18.40;99.90
14473;DHT22;7322;50.872;4.386;2022-12-07T12:21:10;18.50;99.90
14473;DHT22;7322;50.872;4.386;2022-12-07T12:23:42;18.50;99.90
14473;DHT22;7322;50.872;4.386;2022-12-07T12:26:17;18.60;99.90
14473;DHT22;7322;50.872;4.386;2022-12-07T12:28:52;18.60;99.90
14473;DHT22;7322;50.872;4.386;2022-12-07T12:31:33;18.60;99.90
14473;DHT22;7322;50.872;4.386;2022-12-07T12:34:32;18.60;99.90
14473;DHT22;7322;50.872;4.386;2022-12-07T12:36:59;18.70;99.90
14473;DHT22;7322;50.872;4.386;2022-12-07T12:39:27;18.70;99.90
14473;DHT22;7322;50.872;4.386;2022-12-07T12:41:58;18.70;99.90
14473;DHT22;7322;50.872;4.386;2022-12-07T12:45:17;18.80;99.90
14473;DHT22;7322;50.872;4.386;2022-12-07T12:47:57;18.80;99.90
14473;DHT22;7322;50.872;4.386;2022-12-07T12:50:28;18.80;99.90
14473;DHT22;7322;50.872;4.386;2022-12-07T13:02:09;19.00;99.90
14473;DHT22;7322;50.872;4.386;2022-12-07T13:04:53;19.10;99.90
14473;DHT22;7322;50.872;4.386;2022-12-07T13:07:54;19.10;99.90
14473;DHT22;7322;50.872;4.386;2022-12-07T13:10:44;19.10;99.90
14473;DHT22;7322;50.872;4.386;2022-12-07T13:13:32;19.10;99.90
14473;DHT22;7322;50.872;4.386;2022-12-07T13:19:00;19.10;99.90
14473;DHT22;7322;50.872;4.386;2022-12-07T13:21:43;19.00;99.90
14473;DHT22;7322;50.872;4.386;2022-12-07T13:24:13;19.00;99.90
14473;DHT22;7322;50.872;4.386;2022-12-07T13:26:43;19.00;99.90
14473;DHT22;7322;50.872;4.386;2022-12-07T13:29:13;19.00;99.90
14473;DHT22;7322;50.872;4.386;2022-12-07T13:31:42;18.90;99.90
14473;DHT22;7322;50.872;4.386;2022-12-07T13:34:30;18.90;99.90
14473;DHT22;7322;50.872;4.386;2022-12-07T13:36:58;18.90;99.90
14473;DHT22;7322;50.872;4.386;2022-12-07T13:39:28;18.90;99.90
14473;DHT22;7322;50.872;4.386;2022-12-07T13:41:57;18.80;99.90
14473;DHT22;7322;50.872;4.386;2022-12-07T13:44:25;18.80;99.90
14473;DHT22;7322;50.872;4.386;2022-12-07T13:46:58;18.80;99.90
14473;DHT22;7322;50.872;4.386;2022-12-07T13:49:30;18.80;99.90
14473;DHT22;7322;50.872;4.386;2022-12-07T13:52:15;18.80;99.90
14473;DHT22;7322;50.872;4.386;2022-12-07T13:55:00;18.80;99.90
14473;DHT22;7322;50.872;4.386;2022-12-07T14:00:34;18.60;99.90
14473;DHT22;7322;50.872;4.386;2022-12-07T14:06:25;18.40;99.90
14473;DHT22;7322;50.872;4.386;2022-12-07T14:09:18;18.30;99.90
14473;DHT22;7322;50.872;4.386;2022-12-07T14:11:48;18.30;99.90
14473;DHT22;7322;50.872;4.386;2022-12-07T14:14:19;18.10;99.90
14473;DHT22;7322;50.872;4.386;2022-12-07T14:16:59;18.10;99.90
14473;DHT22;7322;50.872;4.386;2022-12-07T14:19:49;18.00;99.90
14473;DHT22;7322;50.872;4.386;2022-12-07T14:22:28;18.00;99.90
14473;DHT22;7322;50.872;4.386;2022-12-07T14:25:18;17.90;99.90
14473;DHT22;7322;50.872;4.386;2022-12-07T14:27:53;17.90;99.90
14473;DHT22;7322;50.872;4.386;2022-12-07T14:30:23;17.80;99.90
14473;DHT22;7322;50.872;4.386;2022-12-07T14:32:53;17.80;99.90
14473;DHT22;7322;50.872;4.386;2022-12-07T14:35:20;17.70;99.90
14473;DHT22;7322;50.872;4.386;2022-12-07T14:37:50;17.70;99.90
14473;DHT22;7322;50.872;4.386;2022-12-07T14:40:19;17.70;99.90
14473;DHT22;7322;50.872;4.386;2022-12-07T14:42:48;17.60;99.90
14473;DHT22;7322;50.872;4.386;2022-12-07T14:45:19;17.60;99.90
14473;DHT22;7322;50.872;4.386;2022-12-07T14:47:47;17.50;99.90
14473;DHT22;7322;50.872;4.386;2022-12-07T14:50:19;17.50;99.90
14473;DHT22;7322;50.872;4.386;2022-12-07T14:52:49;17.50;99.90
14473;DHT22;7322;50.872;4.386;2022-12-07T14:55:23;17.50;99.90
14473;DHT22;7322;50.872;4.386;2022-12-07T14:57:56;17.40;99.90
14473;DHT22;7322;50.872;4.386;2022-12-07T15:00:27;17.40;99.90
14473;DHT22;7322;50.872;4.386;2022-12-07T15:02:55;17.40;99.90
14473;DHT22;7322;50.872;4.386;2022-12-07T15:05:23;17.40;99.90
14473;DHT22;7322;50.872;4.386;2022-12-07T15:07:52;17.40;99.90
14473;DHT22;7322;50.872;4.386;2022-12-07T15:10:22;17.30;99.90
14473;DHT22;7322;50.872;4.386;2022-12-07T15:12:49;17.30;99.90
14473;DHT22;7322;50.872;4.386;2022-12-07T15:15:16;17.30;99.90
14473;DHT22;7322;50.872;4.386;2022-12-07T15:17:45;17.30;99.90
14473;DHT22;7322;50.872;4.386;2022-12-07T15:20:14;17.20;99.90
14473;DHT22;7322;50.872;4.386;2022-12-07T15:22:57;17.20;99.90
14473;DHT22;7322;50.872;4.386;2022-12-07T15:25:28;17.20;99.90
14473;DHT22;7322;50.872;4.386;2022-12-07T15:28:22;17.10;99.90
14473;DHT22;7322;50.872;4.386;2022-12-07T15:34:12;17.10;99.90
14473;DHT22;7322;50.872;4.386;2022-12-07T15:36:39;17.00;99.90
14473;DHT22;7322;50.872;4.386;2022-12-07T15:39:23;17.00;99.90
14473;DHT22;7322;50.872;4.386;2022-12-07T15:41:50;17.00;99.90
14473;DHT22;7322;50.872;4.386;2022-12-07T15:44:17;16.90;99.90
14473;DHT22;7322;50.872;4.386;2022-12-07T15:47:03;16.90;99.90
14473;DHT22;7322;50.872;4.386;2022-12-07T15:49:32;16.90;99.90
14473;DHT22;7322;50.872;4.386;2022-12-07T15:51:59;16.90;99.90
14473;DHT22;7322;50.872;4.386;2022-12-07T15:54:27;16.90;99.90
14473;DHT22;7322;50.872;4.386;2022-12-07T15:56:55;16.80;99.90
14473;DHT22;7322;50.872;4.386;2022-12-07T15:59:23;16.80;99.90
14473;DHT22;7322;50.872;4.386;2022-12-07T16:01:50;16.80;99.90
14473;DHT22;7322;50.872;4.386;2022-12-07T16:04:17;16.80;99.90
14473;DHT22;7322;50.872;4.386;2022-12-07T16:06:45;16.80;99.90
14473;DHT22;7322;50.872;4.386;2022-12-07T16:09:13;16.80;99.90
14473;DHT22;7322;50.872;4.386;2022-12-07T16:11:41;16.80;99.90
14473;DHT22;7322;50.872;4.386;2022-12-07T16:14:10;16.70;99.90
14473;DHT22;7322;50.872;4.386;2022-12-07T16:16:37;16.70;99.90
14473;DHT22;7322;50.872;4.386;2022-12-07T16:19:06;16.70;99.90
14473;DHT22;7322;50.872;4.386;2022-12-07T16:21:34;16.70;99.90
14473;DHT22;7322;50.872;4.386;2022-12-07T16:24:04;16.70;99.90
14473;DHT22;7322;50.872;4.386;2022-12-07T16:26:32;16.70;99.90
14473;DHT22;7322;50.872;4.386;2022-12-07T16:28:59;16.70;99.90
14473;DHT22;7322;50.872;4.386;2022-12-07T16:31:27;16.70;99.90
14473;DHT22;7322;50.872;4.386;2022-12-07T16:33:57;16.60;99.90
14473;DHT22;7322;50.872;4.386;2022-12-07T16:36:25;16.60;99.90
14473;DHT22;7322;50.872;4.386;2022-12-07T16:38:53;16.60;99.90
14473;DHT22;7322;50.872;4.386;2022-12-07T16:41:27;16.60;99.90
14473;DHT22;7322;50.872;4.386;2022-12-07T16:44:13;16.60;99.90
14473;DHT22;7322;50.872;4.386;2022-12-07T16:46:42;16.60;99.90
14473;DHT22;7322;50.872;4.386;2022-12-07T16:49:14;16.50;99.90
14473;DHT22;7322;50.872;4.386;2022-12-07T16:51:43;16.50;99.90
14473;DHT22;7322;50.872;4.386;2022-12-07T16:54:20;16.50;99.90
14473;DHT22;7322;50.872;4.386;2022-12-07T16:56:59;16.50;99.90
14473;DHT22;7322;50.872;4.386;2022-12-07T16:59:47;16.50;99.90
14473;DHT22;7322;50.872;4.386;2022-12-07T17:02:19;16.50;99.90
14473;DHT22;7322;50.872;4.386;2022-12-07T17:04:47;16.40;99.90
14473;DHT22;7322;50.872;4.386;2022-12-07T17:07:22;16.50;99.90
14473;DHT22;7322;50.872;4.386;2022-12-07T17:09:52;16.50;99.90
14473;DHT22;7322;50.872;4.386;2022-12-07T17:12:34;16.40;99.90
14473;DHT22;7322;50.872;4.386;2022-12-07T17:15:03;16.40;99.90
14473;DHT22;7322;50.872;4.386;2022-12-07T17:18:01;16.50;99.90
14473;DHT22;7322;50.872;4.386;2022-12-07T17:20:28;16.40;99.90
14473;DHT22;7322;50.872;4.386;2022-12-07T17:23:08;16.40;99.90
14473;DHT22;7322;50.872;4.386;2022-12-07T17:25:36;16.40;99.90
14473;DHT22;7322;50.872;4.386;2022-12-07T17:28:06;16.40;99.90
14473;DHT22;7322;50.872;4.386;2022-12-07T17:30:34;16.40;99.90
14473;DHT22;7322;50.872;4.386;2022-12-07T17:33:02;16.40;99.90
14473;DHT22;7322;50.872;4.386;2022-12-07T17:35:30;16.40;99.90
14473;DHT22;7322;50.872;4.386;2022-12-07T17:37:57;16.40;99.90
14473;DHT22;7322;50.872;4.386;2022-12-07T17:40:24;16.40;99.90
14473;DHT22;7322;50.872;4.386;2022-12-07T17:42:52;16.40;99.90
14473;DHT22;7322;50.872;4.386;2022-12-07T17:45:21;16.40;99.90
14473;DHT22;7322;50.872;4.386;2022-12-07T17:47:49;16.40;99.90
14473;DHT22;7322;50.872;4.386;2022-12-07T17:50:19;16.40;99.90